Aviation Digital Data Service (ADDS)

Output produced by METARs form (0016 UTC 26 January 2015)
found at http://www.aviationweather.gov/adds/metars/
 
KBMI 252320Z 2600/2624 02016G25KT P6SM OVC015 
     FM260900 01009KT P6SM SCT015 
     FM261400 30004KT P6SM SCT015 BKN050 
     FM261900 20007KT P6SM BKN025